Time;durP1;ratioP1;P1;durP2;ratioP2;P2;SDS_P1;SDS_P2;PMS_P1;PMS_P2;Temp;Humidity;BMP_temperature;BMP_pressure;BME280_temperature;BME280_humidity;BME280_pressure;Samples;Min_cycle;Max_cycle;Signal;HPM_P1;HPM_P2
2024/02/20 00:00:36;;;;;;;;;10.00;9.00;;;;;11.35;69.88;103012.72;1990798;28;3486702;-75
2024/02/20 00:01:48;;;;;;;;;42.00;33.00;;;;;11.38;69.58;103011.84;2006229;28;2857677;-75
2024/02/20 00:03:00;;;;;;;;;22.67;18.33;;;;;11.42;69.76;103015.34;1990588;28;3564834;-75
2024/02/20 00:04:12;;;;;;;;;18.60;15.20;;;;;11.40;69.50;103018.00;2017810;28;3554363;-75
2024/02/20 00:05:24;;;;;;;;;21.20;19.40;;;;;11.39;69.58;103016.22;2024028;27;2831545;-75
2024/02/20 00:06:36;;;;;;;;;15.60;14.60;;;;;11.39;69.86;103016.22;1996388;28;1831594;-75
2024/02/20 00:07:47;;;;;;;;;14.50;11.00;;;;;11.39;69.40;103013.59;1989235;28;2795063;-75
2024/02/20 00:09:01;;;;;;;;;26.00;20.43;;;;;11.41;69.68;103019.75;1989127;28;2850325;-75
2024/02/20 00:10:12;;;;;;;;;13.00;11.50;;;;;11.38;69.71;103019.75;1991021;28;2799245;-75
2024/02/20 00:11:24;;;;;;;;;25.33;19.00;;;;;11.38;69.77;103016.25;1963118;28;3578298;-75
2024/02/20 00:12:37;;;;;;;;;20.00;16.50;;;;;11.39;69.95;103018.88;2005558;27;2827392;-75
2024/02/20 00:13:48;;;;;;;;;25.33;18.00;;;;;11.39;70.03;103024.13;1982026;28;3581509;-75
2024/02/20 00:15:01;;;;;;;;;14.00;14.00;;;;;11.41;69.79;103030.28;2011265;27;2796098;-75
2024/02/20 00:16:11;;;;;;;;;16.00;12.00;;;;;11.37;69.39;103025.88;1997555;28;2788142;-75
2024/02/20 00:17:23;;;;;;;;;20.40;16.80;;;;;11.38;69.79;103037.31;2015839;28;3560656;-75
2024/02/20 00:18:35;;;;;;;;;28.67;20.67;;;;;11.36;69.67;103032.00;2002978;28;3605476;-75
2024/02/20 00:19:48;;;;;;;;;17.20;12.80;;;;;11.35;69.50;103032.91;1986319;28;2812215;-75
2024/02/20 00:20:59;;;;;;;;;22.00;15.00;;;;;11.31;69.61;103025.91;1991918;27;2821096;-75
2024/02/20 00:22:10;;;;;;;;;13.75;12.00;;;;;11.30;69.79;103021.50;2002897;27;1825278;-75
2024/02/20 00:23:21;;;;;;;;;15.00;14.50;;;;;11.29;69.84;103025.88;1967805;28;2798216;-75
2024/02/20 00:24:34;;;;;;;;;21.83;14.67;;;;;11.30;69.41;103026.75;1997061;28;2821092;-75
2024/02/20 00:25:45;;;;;;;;;21.50;16.00;;;;;11.31;69.99;103023.25;1984566;28;2821112;-75
2024/02/20 00:26:56;;;;;;;;;16.00;14.00;;;;;11.30;69.54;103024.13;1959758;28;2806544;-75
2024/02/20 00:28:07;;;;;;;;;21.00;15.00;;;;;11.30;70.04;103022.38;1964108;28;2827354;-75
2024/02/20 00:29:18;;;;;;;;;10.67;9.33;;;;;11.33;69.71;103025.00;1990546;28;3490952;-75
2024/02/20 00:30:29;;;;;;;;;19.50;14.00;;;;;11.35;69.77;103023.25;2013856;28;2819009;-75
2024/02/20 00:31:40;;;;;;;;;18.50;17.50;;;;;11.36;69.58;103022.38;1992454;28;2827298;-75
2024/02/20 00:32:53;;;;;;;;;20.40;17.20;;;;;11.37;69.87;103023.25;1985991;28;2814803;-75
2024/02/20 00:34:06;;;;;;;;;20.83;17.83;;;;;11.39;69.72;103025.88;2002705;28;2837742;-75
2024/02/20 00:35:17;;;;;;;;;19.00;13.25;;;;;11.39;69.69;103029.41;2004320;28;1816958;-75
2024/02/20 00:36:30;;;;;;;;;18.00;15.00;;;;;11.39;69.44;103024.13;1976525;28;2815955;-75
2024/02/20 00:37:40;;;;;;;;;22.50;19.00;;;;;11.40;69.68;103025.91;1971077;27;2821095;-75
2024/02/20 00:38:51;;;;;;;;;18.00;16.50;;;;;11.39;69.77;103024.13;1982116;28;2812731;-75
2024/02/20 00:40:03;;;;;;;;;21.25;18.00;;;;;11.40;69.42;103025.91;1993708;27;1837303;-75
2024/02/20 00:41:14;;;;;;;;;24.00;17.00;;;;;11.40;69.65;103025.00;1967507;28;2813827;-75
2024/02/20 00:42:27;;;;;;;;;23.00;17.67;;;;;11.41;69.66;103032.91;1998174;27;2827386;-75
2024/02/20 00:43:38;;;;;;;;;22.00;18.00;;;;;11.44;69.62;103032.91;1990574;28;2838225;-75
2024/02/20 00:44:49;;;;;;;;;21.50;15.00;;;;;11.41;69.33;103025.00;1993123;28;2827338;-75
2024/02/20 00:46:03;;;;;;;;;22.67;17.67;;;;;11.40;69.59;103025.91;1992435;28;3579355;-75
2024/02/20 00:47:14;;;;;;;;;22.50;17.00;;;;;11.38;69.48;103025.03;1998982;28;2836743;-75
2024/02/20 00:48:26;;;;;;;;;20.40;17.40;;;;;11.38;69.46;103026.78;2003285;28;1833712;-75
2024/02/20 00:49:40;;;;;;;;;21.33;17.33;;;;;11.34;69.91;103026.75;2002215;28;1833757;-75
2024/02/20 00:50:50;;;;;;;;;23.00;17.00;;;;;11.36;69.61;103032.00;1967038;28;2816941;-75
2024/02/20 00:52:02;;;;;;;;;28.00;20.00;;;;;11.33;69.33;103029.41;1985481;28;2837053;-75
2024/02/20 00:53:16;;;;;;;;;16.43;14.57;;;;;11.34;69.66;103031.16;1996871;28;1827466;-75
2024/02/20 00:54:27;;;;;;;;;22.67;16.67;;;;;11.33;69.60;103043.41;1991323;28;3553406;-75
2024/02/20 00:55:41;;;;;;;;;19.83;14.00;;;;;11.30;69.67;103040.81;2048182;27;2829388;-75
2024/02/20 00:56:52;;;;;;;;;14.50;14.00;;;;;11.31;69.89;103044.31;1981298;28;2802342;-76
2024/02/20 00:58:04;;;;;;;;;20.40;18.20;;;;;11.28;70.10;103041.69;1999936;27;1837812;-75
2024/02/20 00:59:15;;;;;;;;;21.00;16.00;;;;;11.23;69.50;103039.94;1997341;27;2815847;-75
2024/02/20 01:00:26;;;;;;;;;17.50;17.00;;;;;11.21;69.90;103031.13;1978327;28;2819028;-75
2024/02/20 01:01:37;;;;;;;;;16.50;14.00;;;;;11.21;70.11;103030.28;1973351;28;2806506;-75
2024/02/20 01:02:48;;;;;;;;;17.00;13.00;;;;;11.22;70.09;103024.13;2002908;28;2819050;-75
2024/02/20 01:03:59;;;;;;;;;18.00;17.00;;;;;11.20;70.08;103016.22;1991563;28;2832568;-75
2024/02/20 01:05:10;;;;;;;;;22.50;18.00;;;;;11.24;70.11;103025.00;1990981;28;2822155;-75
2024/02/20 01:06:21;;;;;;;;;14.00;11.50;;;;;11.23;70.05;103018.88;1982931;28;2796049;-75
2024/02/20 01:07:32;;;;;;;;;17.50;13.00;;;;;11.23;70.10;103004.81;2003591;28;2811709;-75
2024/02/20 01:08:43;;;;;;;;;9.67;8.33;;;;;11.19;69.87;103006.56;2002344;28;1821116;-75
2024/02/20 01:09:56;;;;;;;;;20.67;14.83;;;;;11.20;69.62;103017.97;2010255;28;2820074;-75
2024/02/20 01:11:07;;;;;;;;;12.00;12.00;;;;;11.21;70.04;103014.47;1992133;28;2781503;-75
2024/02/20 01:12:19;;;;;;;;;19.40;17.20;;;;;11.15;69.80;103017.97;2026687;28;1830523;-75
2024/02/20 01:13:29;;;;;;;;;19.00;15.00;;;;;11.17;69.90;103024.13;1996851;28;2822169;-75
2024/02/20 01:14:42;;;;;;;;;21.00;16.80;;;;;11.13;70.01;103025.88;2001506;27;1830497;-75
2024/02/20 01:15:53;;;;;;;;;16.50;16.00;;;;;11.16;69.93;103032.03;1990523;28;2823176;-75
2024/02/20 01:17:05;;;;;;;;;15.25;13.25;;;;;11.12;70.18;103029.38;1990943;28;1846179;-75
2024/02/20 01:18:16;;;;;;;;;12.00;11.50;;;;;11.13;69.85;103028.50;2007447;28;2789828;-75
2024/02/20 01:19:27;;;;;;;;;18.50;13.50;;;;;11.13;70.07;103027.63;2009737;28;2815899;-75
2024/02/20 01:20:39;;;;;;;;;18.00;14.00;;;;;11.14;69.96;103032.00;1989559;28;2812861;-75
2024/02/20 01:21:53;;;;;;;;;17.00;14.29;;;;;11.13;70.13;103025.88;2020685;28;1824318;-75
2024/02/20 01:23:04;;;;;;;;;15.25;15.00;;;;;11.12;70.23;103032.00;2009904;28;1850298;-75
2024/02/20 01:24:19;;;;;;;;;23.14;17.00;;;;;11.09;70.17;103025.84;2024158;27;1830591;-75
2024/02/20 01:25:30;;;;;;;;;21.00;17.50;;;;;11.08;70.34;103032.00;1998302;28;2820050;-75
2024/02/20 01:26:42;;;;;;;;;22.00;15.50;;;;;11.07;70.14;103028.47;1983026;28;2815857;-75
2024/02/20 01:27:52;;;;;;;;;16.00;12.00;;;;;11.08;70.29;103035.53;1966237;28;2804803;-75
2024/02/20 01:29:03;;;;;;;;;16.00;12.00;;;;;11.06;70.30;103031.13;1998750;28;2799182;-75
2024/02/20 01:30:14;;;;;;;;;14.50;13.75;;;;;11.05;70.33;103030.25;2010289;28;1823235;-75
2024/02/20 01:31:25;;;;;;;;;19.00;13.50;;;;;11.07;70.46;103028.47;1971146;28;2812763;-75
2024/02/20 01:32:38;;;;;;;;;16.40;14.40;;;;;11.07;70.36;103035.50;2001413;28;1835161;-75
2024/02/20 01:33:49;;;;;;;;;17.00;15.00;;;;;11.06;70.33;103033.75;1997736;28;2801683;-75
2024/02/20 01:35:00;;;;;;;;;17.00;17.00;;;;;11.02;70.47;103031.09;1990847;28;2819090;-75
2024/02/20 01:36:11;;;;;;;;;19.25;14.75;;;;;11.01;70.32;103034.59;2004391;28;1823196;-75
2024/02/20 01:37:21;;;;;;;;;19.50;18.50;;;;;11.00;70.31;103027.59;1975344;28;2814364;-75
2024/02/20 01:38:32;;;;;;;;;17.50;16.00;;;;;10.98;70.32;103024.09;1981339;28;2817959;-75
2024/02/20 01:39:44;;;;;;;;;21.67;16.00;;;;;11.00;70.68;103021.47;1975022;28;2827452;-75
2024/02/20 01:40:57;;;;;;;;;18.00;15.33;;;;;10.97;70.53;103017.06;2019425;28;1825337;-75
2024/02/20 01:42:09;;;;;;;;;12.25;11.50;;;;;10.98;70.37;103021.47;1985890;28;1846144;-75
2024/02/20 01:43:19;;;;;;;;;14.00;12.50;;;;;11.01;70.63;103031.97;2015214;27;2799257;-75
2024/02/20 01:44:33;;;;;;;;;22.00;17.67;;;;;11.03;70.53;103032.88;2016400;28;2823169;-75
2024/02/20 01:45:45;;;;;;;;;12.25;9.00;;;;;11.00;70.52;103030.22;2021228;28;1837809;-75
2024/02/20 01:47:00;;;;;;;;;23.29;18.86;;;;;11.03;70.50;103032.88;2025769;28;1840948;-75
2024/02/20 01:48:12;;;;;;;;;23.00;19.67;;;;;11.01;70.90;103024.06;1992071;28;3576297;-75
2024/02/20 01:49:24;;;;;;;;;23.67;18.67;;;;;11.03;70.38;103032.88;2008018;28;3569004;-75
2024/02/20 01:50:36;;;;;;;;;28.67;19.67;;;;;11.01;70.26;103018.81;1990992;28;2834182;-75
2024/02/20 01:51:47;;;;;;;;;20.00;15.00;;;;;11.03;70.73;103024.09;1984141;28;2813850;-75
2024/02/20 01:52:58;;;;;;;;;20.00;15.00;;;;;11.03;70.20;103022.34;1981447;28;2825258;-75
2024/02/20 01:54:09;;;;;;;;;22.50;17.00;;;;;11.03;70.27;103022.34;1983322;28;2821104;-75
2024/02/20 01:55:22;;;;;;;;;25.50;19.67;;;;;11.03;70.47;103017.09;1997076;28;2838791;-75
2024/02/20 01:56:35;;;;;;;;;23.50;17.00;;;;;11.03;70.48;103022.34;1981832;28;2833567;-75
2024/02/20 01:57:49;;;;;;;;;19.00;16.14;;;;;10.99;70.13;103017.94;1996903;28;1829445;-75
2024/02/20 01:59:01;;;;;;;;;17.33;17.33;;;;;11.00;70.79;103027.59;1989050;28;3566932;-75
2024/02/20 02:00:12;;;;;;;;;22.00;19.00;;;;;11.00;70.73;103031.97;1990837;28;2840931;-75
2024/02/20 02:01:26;;;;;;;;;23.80;20.40;;;;;10.99;70.41;103036.34;2001642;28;1827457;-75
2024/02/20 02:02:39;;;;;;;;;19.67;18.17;;;;;10.96;70.82;103030.22;1996053;28;1821128;-75
2024/02/20 02:03:52;;;;;;;;;26.00;20.33;;;;;10.97;70.52;103031.97;1977109;28;3575288;-75
2024/02/20 02:05:03;;;;;;;;;25.33;22.67;;;;;10.93;70.28;103025.84;1996779;28;3586708;-75
2024/02/20 02:06:16;;;;;;;;;24.60;17.80;;;;;10.93;70.86;103028.47;1994539;28;1832648;-75
2024/02/20 02:07:27;;;;;;;;;30.00;22.33;;;;;10.93;70.41;103036.34;1989261;28;3607551;-75
2024/02/20 02:08:39;;;;;;;;;23.67;20.67;;;;;10.92;70.72;103042.47;1971989;28;3594009;-75
2024/02/20 02:09:50;;;;;;;;;21.50;17.00;;;;;10.90;70.71;103038.97;2002395;28;2826315;-75
2024/02/20 02:11:02;;;;;;;;;22.00;18.00;;;;;10.91;70.85;103040.75;1989852;28;3556543;-75
2024/02/20 02:12:14;;;;;;;;;22.40;19.60;;;;;10.93;70.89;103046.88;2018738;28;1834653;-75
2024/02/20 02:13:25;;;;;;;;;21.50;17.50;;;;;10.94;70.97;103048.63;1994890;28;2810679;-75
2024/02/20 02:14:42;;;;;;;;;26.00;23.33;;;;;10.95;70.69;103044.25;1976458;28;3592472;-75
2024/02/20 02:15:53;;;;;;;;;24.00;21.33;;;;;10.94;70.93;103038.09;1983948;28;3576282;-75
2024/02/20 02:17:05;;;;;;;;;25.67;21.33;;;;;10.94;70.95;103043.34;2006076;27;3577788;-75
2024/02/20 02:18:17;;;;;;;;;24.33;20.67;;;;;10.95;70.78;103034.59;2010773;27;3577334;-75
2024/02/20 02:19:30;;;;;;;;;27.50;21.00;;;;;10.97;70.73;103032.84;2031077;27;2845115;-75
2024/02/20 02:20:41;;;;;;;;;23.00;22.25;;;;;10.99;70.55;103027.56;2000476;28;1830503;-75
2024/02/20 02:21:52;;;;;;;;;21.00;18.00;;;;;10.93;70.60;103012.69;1971371;28;2837786;-75
2024/02/20 02:23:04;;;;;;;;;26.80;20.40;;;;;10.93;70.90;103020.56;2004765;28;3590865;-75
2024/02/20 02:24:15;;;;;;;;;26.00;21.33;;;;;10.88;70.75;103017.03;1990290;28;3590852;-75
2024/02/20 02:25:26;;;;;;;;;14.50;14.50;;;;;10.90;70.71;103020.56;2014012;28;2818033;-75
2024/02/20 02:26:39;;;;;;;;;24.33;19.33;;;;;10.90;70.82;103024.06;1987617;27;3575269;-75
2024/02/20 02:27:50;;;;;;;;;25.33;24.00;;;;;10.88;70.67;103022.31;2000225;27;3586702;-75
2024/02/20 02:29:02;;;;;;;;;26.67;22.00;;;;;10.89;70.90;103027.56;2009461;28;3575250;-75
2024/02/20 02:30:15;;;;;;;;;26.00;20.00;;;;;10.88;70.52;103019.69;1999118;28;3581502;-75
2024/02/20 02:31:29;;;;;;;;;25.71;21.57;;;;;10.84;70.92;103021.41;2012057;28;1838852;-75
2024/02/20 02:32:43;;;;;;;;;23.43;19.14;;;;;10.81;70.99;103024.06;2020033;28;1831563;-75
2024/02/20 02:33:57;;;;;;;;;23.57;19.29;;;;;10.78;71.15;103027.56;2017918;28;1828453;-75
2024/02/20 02:35:11;;;;;;;;;20.00;16.67;;;;;10.78;71.09;103026.66;2019852;28;1831623;-75
2024/02/20 02:36:24;;;;;;;;;19.00;17.00;;;;;10.77;71.10;103025.78;1963428;28;2824256;-75
2024/02/20 02:37:36;;;;;;;;;19.00;16.67;;;;;10.76;71.08;103023.16;1967325;28;3571069;-75
2024/02/20 02:38:48;;;;;;;;;32.00;21.33;;;;;10.76;71.24;103024.03;1999297;28;3602335;-75
2024/02/20 02:40:00;;;;;;;;;28.00;22.00;;;;;10.75;71.18;103021.38;2008456;28;3576302;-75
2024/02/20 02:41:12;;;;;;;;;22.40;17.80;;;;;10.72;70.81;103027.50;2023730;28;1830575;-75
2024/02/20 02:42:23;;;;;;;;;20.33;17.33;;;;;10.71;71.23;103025.78;1997359;28;2817974;-75
2024/02/20 02:43:34;;;;;;;;;19.00;15.00;;;;;10.72;71.58;103030.16;1993633;28;2819382;-75
2024/02/20 02:44:46;;;;;;;;;21.67;20.00;;;;;10.72;71.29;103032.78;1984471;28;3572060;-75
2024/02/20 02:45:59;;;;;;;;;27.00;21.83;;;;;10.72;71.47;103024.03;2001888;28;2846072;-75
2024/02/20 02:47:11;;;;;;;;;28.00;20.67;;;;;10.70;71.33;103031.91;1986967;27;3585667;-75
2024/02/20 02:48:23;;;;;;;;;27.00;22.33;;;;;10.72;71.44;103031.91;2005696;28;3593024;-75
2024/02/20 02:49:34;;;;;;;;;25.00;20.33;;;;;10.72;71.47;103032.78;2004681;28;2819087;-75
2024/02/20 02:50:46;;;;;;;;;25.33;17.00;;;;;10.72;71.47;103030.16;1995532;27;3575800;-75
2024/02/20 02:52:00;;;;;;;;;29.67;19.67;;;;;10.74;71.97;103033.66;2008542;28;3603410;-75
2024/02/20 02:53:11;;;;;;;;;26.67;20.67;;;;;10.70;71.46;103034.53;1965137;28;3586721;-75
2024/02/20 02:54:25;;;;;;;;;25.67;22.00;;;;;10.69;71.84;103023.13;2005727;28;3578372;-75
2024/02/20 02:55:38;;;;;;;;;18.80;16.40;;;;;10.68;71.56;103031.03;2008661;28;2829436;-75
2024/02/20 02:56:50;;;;;;;;;27.60;22.20;;;;;10.67;71.74;103034.50;1987798;28;3584673;-75
2024/02/20 02:58:05;;;;;;;;;25.29;20.71;;;;;10.66;71.53;103030.13;2000183;28;2849573;-75
2024/02/20 02:59:15;;;;;;;;;26.00;22.50;;;;;10.68;71.95;103028.38;1991843;28;2843971;-75
2024/02/20 03:00:27;;;;;;;;;21.67;21.00;;;;;10.70;72.05;103034.53;1986011;28;3569054;-75
2024/02/20 03:01:39;;;;;;;;;23.67;22.00;;;;;10.70;71.78;103045.03;2014138;28;3583595;-75
2024/02/20 03:02:51;;;;;;;;;31.33;24.33;;;;;10.68;72.07;103037.16;1999218;28;3599210;-75
2024/02/20 03:04:04;;;;;;;;;26.33;22.00;;;;;10.69;71.83;103040.69;1984496;27;3579395;-75
2024/02/20 03:05:16;;;;;;;;;23.00;17.33;;;;;10.70;72.08;103042.41;2004460;28;3563775;-75
2024/02/20 03:06:36;;;;;;;;;22.57;17.43;;;;;10.66;72.04;103035.41;2031646;28;1831618;-75
2024/02/20 03:07:49;;;;;;;;;22.00;17.67;;;;;10.64;71.91;103031.88;1989116;28;3581551;-75
2024/02/20 03:08:59;;;;;;;;;18.50;16.50;;;;;10.65;72.34;103031.00;1986891;28;2801319;-75
2024/02/20 03:10:11;;;;;;;;;26.80;21.40;;;;;10.66;72.27;103024.88;1983261;28;3577312;-75
2024/02/20 03:11:23;;;;;;;;;21.67;19.33;;;;;10.70;71.61;103031.91;2005929;28;2838997;-75
2024/02/20 03:12:34;;;;;;;;;31.00;24.00;;;;;10.68;72.14;103028.38;1990308;28;3579422;-75
2024/02/20 03:13:46;;;;;;;;;24.20;20.80;;;;;10.71;72.28;103033.66;2017904;28;3577268;-75
2024/02/20 03:14:59;;;;;;;;;26.00;22.00;;;;;10.70;72.06;103029.25;2014921;28;3586714;-75
2024/02/20 03:16:11;;;;;;;;;31.00;23.67;;;;;10.71;71.92;103024.88;1988910;28;3581486;-75
2024/02/20 03:17:21;;;;;;;;;26.50;22.00;;;;;10.71;72.01;103024.88;1984173;28;2848209;-75
2024/02/20 03:18:36;;;;;;;;;27.67;24.00;;;;;10.72;72.28;103026.66;1983031;28;3584678;-75
2024/02/20 03:19:47;;;;;;;;;24.67;21.00;;;;;10.75;71.99;103026.66;1988594;28;3589206;-75
2024/02/20 03:21:02;;;;;;;;;30.33;24.00;;;;;10.75;71.92;103027.53;2004842;28;2851774;-75
2024/02/20 03:22:15;;;;;;;;;28.00;21.33;;;;;10.72;71.98;103011.72;1996443;28;3593977;-75
2024/02/20 03:23:27;;;;;;;;;25.50;21.50;;;;;10.73;72.35;103017.88;1991683;28;2843037;-75
2024/02/20 03:24:40;;;;;;;;;34.00;25.67;;;;;10.76;72.17;103017.91;1986661;28;3595421;-75
2024/02/20 03:25:51;;;;;;;;;29.00;24.33;;;;;10.77;71.89;103015.25;1996937;28;3595035;-75
2024/02/20 03:27:03;;;;;;;;;29.00;24.00;;;;;10.81;72.11;103013.53;2001778;28;3597106;-75
2024/02/20 03:28:17;;;;;;;;;22.17;20.17;;;;;10.80;72.00;103009.13;1994583;28;1831577;-75
2024/02/20 03:29:30;;;;;;;;;26.00;20.33;;;;;10.79;71.82;103012.66;1964871;28;3583574;-75
2024/02/20 03:30:41;;;;;;;;;24.00;22.00;;;;;10.77;71.89;103006.47;1966001;28;2853410;-75
2024/02/20 03:31:51;;;;;;;;;25.50;18.00;;;;;10.75;72.13;103005.59;1966740;28;2837781;-75
2024/02/20 03:33:03;;;;;;;;;30.67;27.33;;;;;10.71;71.97;103004.72;1996395;28;3598144;-76
2024/02/20 03:34:15;;;;;;;;;26.20;21.20;;;;;10.66;72.04;103011.72;1993434;28;1829495;-75
2024/02/20 03:35:27;;;;;;;;;30.67;25.67;;;;;10.68;71.88;103009.97;1986102;28;3598173;-75
2024/02/20 03:36:39;;;;;;;;;24.67;21.00;;;;;10.70;71.98;103013.47;2006209;28;3573184;-75
2024/02/20 03:37:50;;;;;;;;;22.33;18.67;;;;;10.70;72.33;103013.47;2013700;28;2823326;-75
2024/02/20 03:39:02;;;;;;;;;31.33;25.67;;;;;10.72;72.31;103011.72;1996645;28;3588808;-75
2024/02/20 03:40:15;;;;;;;;;23.67;19.67;;;;;10.71;71.88;103017.88;1996923;28;3577312;-75
2024/02/20 03:41:26;;;;;;;;;27.33;22.00;;;;;10.76;72.19;103023.16;1990616;28;3565870;-75
2024/02/20 03:42:38;;;;;;;;;27.00;22.00;;;;;10.75;71.73;103017.00;2004502;28;3591263;-75
2024/02/20 03:43:50;;;;;;;;;24.67;22.33;;;;;10.75;72.05;103017.00;1998062;28;3588282;-75
2024/02/20 03:45:02;;;;;;;;;30.00;20.67;;;;;10.78;72.26;103014.41;2014039;27;3596467;-75
2024/02/20 03:46:14;;;;;;;;;25.67;21.00;;;;;10.83;71.90;103011.78;2011715;27;3587068;-75
2024/02/20 03:47:25;;;;;;;;;28.33;22.33;;;;;10.86;71.65;103014.44;1996642;27;3577667;-75
2024/02/20 03:48:37;;;;;;;;;29.67;23.33;;;;;10.87;71.72;103010.00;2004360;28;3592988;-75
2024/02/20 03:49:50;;;;;;;;;31.67;24.00;;;;;10.91;71.79;103015.28;2007812;28;3599227;-75
2024/02/20 03:51:02;;;;;;;;;19.67;17.00;;;;;10.91;71.53;103011.81;1989214;28;2825342;-75
2024/02/20 03:52:13;;;;;;;;;27.67;23.67;;;;;10.86;71.27;103003.91;1990346;28;3588810;-76
2024/02/20 03:53:26;;;;;;;;;28.33;21.67;;;;;10.80;71.31;103001.25;2012695;28;3574187;-75
2024/02/20 03:54:37;;;;;;;;;32.67;25.67;;;;;10.76;71.74;102999.47;2000239;28;3596185;-75
2024/02/20 03:55:49;;;;;;;;;25.80;22.00;;;;;10.76;71.89;102997.75;1998474;28;1839922;-75
2024/02/20 03:57:03;;;;;;;;;26.20;22.80;;;;;10.76;71.87;102996.84;2017132;28;2839230;-75
2024/02/20 03:58:14;;;;;;;;;25.00;21.00;;;;;10.75;71.69;102995.97;1967840;28;3590813;-75
2024/02/20 03:59:27;;;;;;;;;24.67;19.00;;;;;10.79;72.00;103000.34;2008049;28;3577307;-75
2024/02/20 04:00:40;;;;;;;;;30.67;27.00;;;;;10.79;72.00;102997.72;1998797;28;3591985;-75
2024/02/20 04:01:51;;;;;;;;;29.67;25.00;;;;;10.83;71.71;102992.47;1985142;28;3587740;-75
2024/02/20 04:03:02;;;;;;;;;21.25;19.00;;;;;10.84;71.78;102992.47;2016642;28;1834705;-75
2024/02/20 04:04:15;;;;;;;;;29.67;26.00;;;;;10.88;71.55;102996.00;1976682;28;3586701;-75
2024/02/20 04:05:26;;;;;;;;;25.00;20.33;;;;;10.88;71.61;102993.38;1998223;28;3578353;-75
2024/02/20 04:06:38;;;;;;;;;25.00;21.00;;;;;10.88;71.55;102994.25;2002382;28;3594040;-75
2024/02/20 04:07:50;;;;;;;;;24.67;20.33;;;;;10.94;71.48;103005.66;1982411;28;3590911;-75
2024/02/20 04:09:05;;;;;;;;;25.33;19.67;;;;;10.92;71.11;102995.13;1966245;28;3589855;-75
2024/02/20 04:10:17;;;;;;;;;21.40;17.00;;;;;10.91;71.23;102999.50;2000012;28;2835628;-75
2024/02/20 04:11:32;;;;;;;;;35.20;22.20;;;;;10.93;70.99;103002.16;1970615;28;3602307;-75
2024/02/20 04:12:44;;;;;;;;;25.67;21.33;;;;;10.93;70.81;103001.25;1965277;28;3593950;-75
2024/02/20 04:13:55;;;;;;;;;29.67;25.00;;;;;10.91;71.15;102996.00;2007206;28;3591898;-75
2024/02/20 04:15:10;;;;;;;;;30.00;22.67;;;;;10.90;70.66;102991.63;2013879;28;3592248;-75
2024/02/20 04:16:22;;;;;;;;;29.33;24.00;;;;;10.88;71.16;102989.00;1975299;28;3581509;-75
2024/02/20 04:17:34;;;;;;;;;26.33;22.67;;;;;10.89;71.25;102992.50;2003445;27;3579404;-75
2024/02/20 04:18:45;;;;;;;;;30.00;22.33;;;;;10.89;71.12;102987.25;1990591;27;3587723;-75
2024/02/20 04:20:01;;;;;;;;;28.00;24.67;;;;;10.89;70.94;102992.50;2005061;27;3588773;-75
2024/02/20 04:21:14;;;;;;;;;21.50;15.83;;;;;10.89;70.44;102988.09;2026053;27;1826340;-75
2024/02/20 04:22:26;;;;;;;;;25.67;22.33;;;;;10.88;70.88;102983.72;1975214;27;3580456;-75
2024/02/20 04:23:38;;;;;;;;;20.20;17.00;;;;;10.88;70.80;102983.72;2024959;28;1839877;-75
2024/02/20 04:24:49;;;;;;;;;25.00;21.33;;;;;10.88;70.54;102983.72;1997834;28;3579427;-75
2024/02/20 04:26:01;;;;;;;;;26.00;20.40;;;;;10.86;70.74;102974.06;2019457;28;3581474;-75
2024/02/20 04:27:13;;;;;;;;;25.33;22.33;;;;;10.88;70.70;102980.22;2006937;28;3568020;-75
2024/02/20 04:28:25;;;;;;;;;27.80;22.80;;;;;10.86;70.73;102981.97;2000552;28;3572080;-75
2024/02/20 04:29:37;;;;;;;;;28.67;23.33;;;;;10.86;70.82;102982.84;1993623;28;3589822;-75
2024/02/20 04:30:48;;;;;;;;;23.67;22.00;;;;;10.85;70.71;102977.56;1990753;28;3582519;-75
2024/02/20 04:32:00;;;;;;;;;17.67;17.67;;;;;10.83;70.39;102972.31;2010955;28;2818079;-75
2024/02/20 04:33:12;;;;;;;;;25.33;22.33;;;;;10.83;70.29;102974.06;1997693;28;3586713;-75
2024/02/20 04:34:23;;;;;;;;;26.00;23.00;;;;;10.83;70.40;102979.31;2012689;28;3570023;-75
2024/02/20 04:35:35;;;;;;;;;25.67;23.00;;;;;10.83;70.41;102984.59;2006185;28;3565849;-75
2024/02/20 04:36:47;;;;;;;;;23.67;20.67;;;;;10.78;70.31;102982.81;2006429;28;3566900;-75
2024/02/20 04:37:59;;;;;;;;;21.33;18.33;;;;;10.80;70.38;102983.72;2014674;28;3562745;-75
2024/02/20 04:39:11;;;;;;;;;23.67;21.00;;;;;10.78;70.13;102979.31;2013799;28;2837266;-75
2024/02/20 04:40:26;;;;;;;;;22.00;18.67;;;;;10.77;70.46;102978.44;2028389;28;1828485;-75
2024/02/20 04:41:37;;;;;;;;;33.33;23.33;;;;;10.77;70.09;102977.53;1966733;28;3593318;-75
2024/02/20 04:42:49;;;;;;;;;32.00;25.20;;;;;10.75;70.21;102974.94;2002540;28;3599169;-75
2024/02/20 04:44:01;;;;;;;;;26.00;19.00;;;;;10.74;70.08;102983.69;1984085;28;3585692;-75
2024/02/20 04:45:14;;;;;;;;;21.00;19.00;;;;;10.74;70.19;102978.41;2014898;28;2825286;-75
2024/02/20 04:46:28;;;;;;;;;30.50;23.50;;;;;10.72;69.59;102974.91;1998109;28;2838866;-75
2024/02/20 04:47:40;;;;;;;;;29.33;19.33;;;;;10.70;69.93;102971.41;1970623;28;3584658;-75
2024/02/20 04:48:52;;;;;;;;;17.20;17.20;;;;;10.69;69.97;102961.78;2016758;28;1835711;-75
2024/02/20 04:50:04;;;;;;;;;23.33;20.33;;;;;10.66;69.90;102956.50;1967445;28;3575267;-75
2024/02/20 04:51:16;;;;;;;;;29.00;21.67;;;;;10.64;70.31;102961.72;1996582;28;3579970;-75
2024/02/20 04:52:27;;;;;;;;;27.00;23.00;;;;;10.64;70.07;102960.88;2010810;28;3592963;-75
2024/02/20 04:53:39;;;;;;;;;23.33;21.33;;;;;10.62;70.06;102968.75;2014350;27;3567963;-75
2024/02/20 04:54:52;;;;;;;;;31.00;24.67;;;;;10.61;70.26;102966.13;2014020;28;3590932;-75
2024/02/20 04:56:04;;;;;;;;;23.00;21.00;;;;;10.59;69.99;102966.13;1998499;28;3578380;-75
2024/02/20 04:57:16;;;;;;;;;24.60;19.80;;;;;10.57;69.80;102965.22;2004725;28;3565846;-75
2024/02/20 04:58:29;;;;;;;;;25.33;24.50;;;;;10.56;69.70;102972.25;2030714;28;2839794;-75
2024/02/20 04:59:41;;;;;;;;;27.33;23.00;;;;;10.57;69.85;102973.09;1964986;28;3579411;-75
2024/02/20 05:00:53;;;;;;;;;29.67;21.67;;;;;10.51;69.91;102976.63;2006400;28;3603380;-75
2024/02/20 05:02:05;;;;;;;;;26.60;19.60;;;;;10.52;70.04;102980.97;2023981;28;1830565;-75
2024/02/20 05:03:17;;;;;;;;;21.60;19.20;;;;;10.49;69.79;102973.06;2008368;28;2839806;-75
2024/02/20 05:04:29;;;;;;;;;24.40;21.40;;;;;10.50;69.79;102984.44;1991075;28;3578360;-75
2024/02/20 05:05:41;;;;;;;;;23.33;22.67;;;;;10.50;69.60;102987.06;2014649;28;3585677;-75
2024/02/20 05:06:54;;;;;;;;;24.20;19.20;;;;;10.49;69.88;102985.34;2019060;27;3581482;-75
2024/02/20 05:08:05;;;;;;;;;23.67;19.00;;;;;10.43;69.38;102987.06;2000816;28;3583564;-75
2024/02/20 05:09:17;;;;;;;;;26.80;21.60;;;;;10.44;69.28;102983.56;2010333;28;3588733;-75
2024/02/20 05:10:29;;;;;;;;;24.00;20.67;;;;;10.41;69.66;102990.56;1991672;28;3585645;-75
2024/02/20 05:11:41;;;;;;;;;22.60;18.60;;;;;10.40;69.45;102983.53;2009550;28;3561718;-75
2024/02/20 05:12:53;;;;;;;;;21.40;19.40;;;;;10.35;69.46;102979.16;2022540;28;3562728;-75
2024/02/20 05:14:05;;;;;;;;;33.00;24.67;;;;;10.35;69.39;102984.41;2000479;28;3599202;-75
2024/02/20 05:15:17;;;;;;;;;25.67;21.00;;;;;10.35;69.46;102988.78;2007370;28;3578348;-75
2024/02/20 05:16:28;;;;;;;;;28.80;22.20;;;;;10.33;69.19;102987.91;2008562;28;3575204;-75
2024/02/20 05:17:40;;;;;;;;;21.33;20.33;;;;;10.28;69.21;102985.25;2007159;28;3564842;-74
2024/02/20 05:18:52;;;;;;;;;28.33;21.00;;;;;10.30;69.30;102990.50;1999185;28;3579442;-74
2024/02/20 05:20:06;;;;;;;;;20.67;18.17;;;;;10.24;69.73;102984.38;2019386;28;2833544;-74